createdAt,value
2018-09-21T00:01:36.920Z,100753.39
2018-09-21T00:04:10.653Z,100748.37
2018-09-21T00:06:40.346Z,100741.53
2018-09-21T00:09:10.914Z,100751.16
2018-09-21T00:11:40.046Z,100750.99
2018-09-21T00:14:09.411Z,100749.45
2018-09-21T00:16:38.851Z,100741.02
2018-09-21T00:19:07.600Z,100744.61
2018-09-21T00:21:36.279Z,100742.16
2018-09-21T00:24:05.329Z,100740.03
2018-09-21T00:26:34.043Z,100735.20
2018-09-21T00:29:03.082Z,100735.48
2018-09-21T00:31:31.808Z,100726.28
2018-09-21T00:34:00.578Z,100724.87
2018-09-21T00:36:29.704Z,100730.06
2018-09-21T00:38:58.441Z,100721.92
2018-09-21T00:41:27.172Z,100720.57
2018-09-21T00:43:56.256Z,100718.92
2018-09-21T00:46:25.779Z,100713.45
2018-09-21T00:48:54.966Z,100709.91
2018-09-21T00:51:23.784Z,100704.19
2018-09-21T00:53:52.711Z,100701.46
2018-09-21T00:56:21.466Z,100703.05
2018-09-21T00:58:50.417Z,100697.87
2018-09-21T01:01:19.753Z,100696.47
2018-09-21T01:03:48.987Z,100696.44
2018-09-21T01:06:18.166Z,100690.48
2018-09-21T01:08:47.251Z,100690.12
2018-09-21T01:11:16.044Z,100692.48
2018-09-21T01:13:45.214Z,100687.98
2018-09-21T01:16:14.279Z,100690.05
2018-09-21T01:18:43.124Z,100689.67
2018-09-21T01:21:12.191Z,100685.00
2018-09-21T01:23:40.919Z,100679.52
2018-09-21T01:26:10.070Z,100674.69
2018-09-21T01:28:38.935Z,100678.02
2018-09-21T01:31:07.699Z,100671.18
2018-09-21T01:33:36.460Z,100677.42
2018-09-21T01:36:05.321Z,100675.83
2018-09-21T01:38:34.157Z,100675.54
2018-09-21T01:41:02.969Z,100669.83
2018-09-21T01:43:31.735Z,100663.64
2018-09-21T01:46:00.550Z,100661.70
2018-09-21T01:48:29.599Z,100658.53
2018-09-21T01:50:58.943Z,100653.94
2018-09-21T01:53:27.639Z,100647.70
2018-09-21T01:55:56.455Z,100657.09
2018-09-21T01:58:25.491Z,100657.59
2018-09-21T02:00:54.875Z,100653.95
2018-09-21T02:03:23.604Z,100650.58
2018-09-21T02:05:53.191Z,100651.55
2018-09-21T02:08:21.972Z,100660.45
2018-09-21T02:10:51.004Z,100657.59
2018-09-21T02:13:19.782Z,100649.67
2018-09-21T02:15:48.658Z,100646.87
2018-09-21T02:18:17.400Z,100641.61
2018-09-21T02:20:46.514Z,100639.17
2018-09-21T02:23:15.255Z,100639.67
2018-09-21T02:25:44.114Z,100631.45
2018-09-21T02:28:13.186Z,100627.10
2018-09-21T02:30:42.289Z,100625.98
2018-09-21T02:33:11.050Z,100619.74
2018-09-21T02:35:39.736Z,100621.03
2018-09-21T02:38:08.537Z,100627.66
2018-09-21T02:40:37.383Z,100629.98
2018-09-21T02:43:06.483Z,100628.45
2018-09-21T02:45:35.264Z,100623.33
2018-09-21T02:48:04.312Z,100623.03
2018-09-21T02:50:33.376Z,100611.03
2018-09-21T02:53:02.171Z,100608.09
2018-09-21T02:55:31.303Z,100609.13
2018-09-21T02:58:00.665Z,100608.59
2018-09-21T03:00:29.805Z,100601.17
2018-09-21T03:02:59.199Z,100597.03
2018-09-21T03:05:28.830Z,100592.46
2018-09-21T03:07:57.901Z,100583.10
2018-09-21T03:10:26.968Z,100591.02
2018-09-21T03:12:55.758Z,100584.54
2018-09-21T03:15:24.703Z,100583.39
2018-09-21T03:17:53.517Z,100586.11
2018-09-21T03:20:22.641Z,100583.13
2018-09-21T03:22:51.764Z,100577.19
2018-09-21T03:25:20.884Z,100574.19
2018-09-21T03:27:49.636Z,100573.33
2018-09-21T03:30:18.685Z,100574.05
2018-09-21T03:32:47.737Z,100577.02
2018-09-21T03:35:16.606Z,100565.54
2018-09-21T03:37:45.358Z,100560.57
2018-09-21T03:40:14.328Z,100558.34
2018-09-21T03:42:43.506Z,100559.42
2018-09-21T03:45:12.321Z,100561.02
2018-09-21T03:47:41.339Z,100550.72
2018-09-21T03:50:10.143Z,100545.25
2018-09-21T03:52:39.058Z,100545.30
2018-09-21T03:55:08.491Z,100539.39
2018-09-21T03:57:37.237Z,100541.86
2018-09-21T04:00:06.924Z,100531.03
2018-09-21T04:02:36.010Z,100531.33
2018-09-21T04:05:06.020Z,100529.44
2018-09-21T04:07:35.326Z,100529.91
2018-09-21T04:10:04.127Z,100532.63
2018-09-21T04:12:33.281Z,100534.77
2018-09-21T04:15:02.242Z,100530.27
2018-09-21T04:17:31.403Z,100521.91
2018-09-21T04:20:00.391Z,100529.00
2018-09-21T04:22:29.075Z,100524.11
2018-09-21T04:24:58.278Z,100521.91
2018-09-21T04:27:27.798Z,100522.14
2018-09-21T04:29:56.593Z,100512.38
2018-09-21T04:32:25.367Z,100503.67
2018-09-21T04:34:54.152Z,100504.20
2018-09-21T04:37:23.468Z,100501.77
2018-09-21T04:39:52.270Z,100488.84
2018-09-21T04:42:21.105Z,100489.22
2018-09-21T04:44:50.197Z,100483.91
2018-09-21T04:47:19.298Z,100481.73
2018-09-21T04:49:48.013Z,100487.47
2018-09-21T04:52:16.752Z,100491.52
2018-09-21T04:54:45.538Z,100488.52
2018-09-21T04:57:14.708Z,100488.23
2018-09-21T04:59:43.438Z,100484.80
2018-09-21T05:02:12.830Z,100479.92
2018-09-21T05:04:41.605Z,100480.75
2018-09-21T05:07:10.319Z,100477.22
2018-09-21T05:09:39.123Z,100481.35
2018-09-21T05:12:08.127Z,100468.88
2018-09-21T05:14:36.905Z,100469.17
2018-09-21T05:17:05.958Z,100469.52
2018-09-21T05:19:34.748Z,100461.46
2018-09-21T05:22:03.840Z,100457.74
2018-09-21T05:24:32.587Z,100461.58
2018-09-21T05:27:01.498Z,100459.75
2018-09-21T05:29:30.260Z,100454.59
2018-09-21T05:31:59.537Z,100455.99
2018-09-21T05:34:28.406Z,100456.81
2018-09-21T05:36:57.102Z,100458.22
2018-09-21T05:39:26.168Z,100459.30
2018-09-21T05:41:55.396Z,100449.34
2018-09-21T05:44:24.214Z,100444.27
2018-09-21T05:46:53.072Z,100448.44
2018-09-21T05:49:22.530Z,100446.06
2018-09-21T05:51:51.735Z,100444.23
2018-09-21T05:54:20.810Z,100441.86
2018-09-21T05:56:49.662Z,100439.45
2018-09-21T05:59:18.693Z,100434.95
2018-09-21T06:01:48.134Z,100434.43
2018-09-21T06:04:17.761Z,100431.04
2018-09-21T06:06:46.935Z,100421.61
2018-09-21T06:09:15.954Z,100431.48
2018-09-21T06:11:45.048Z,100425.58
2018-09-21T06:14:14.618Z,100430.55
2018-09-21T06:16:43.520Z,100430.36
2018-09-21T06:19:12.537Z,100423.08
2018-09-21T06:21:41.527Z,100419.87
2018-09-21T06:24:10.518Z,100413.96
2018-09-21T06:26:39.703Z,100411.89
2018-09-21T06:29:08.866Z,100410.08
2018-09-21T06:31:38.343Z,100401.98
2018-09-21T06:34:07.202Z,100404.48
2018-09-21T06:36:36.000Z,100406.73
2018-09-21T06:39:07.279Z,100409.80
2018-09-21T06:41:36.511Z,100402.25
2018-09-21T06:44:05.755Z,100396.06
2018-09-21T06:46:34.843Z,100397.23
2018-09-21T06:49:04.261Z,100401.05
2018-09-21T06:51:33.396Z,100398.65
2018-09-21T06:54:02.320Z,100393.87
2018-09-21T06:56:31.340Z,100392.84
2018-09-21T06:59:00.094Z,100392.09
2018-09-21T07:01:28.894Z,100390.53
2018-09-21T07:03:57.653Z,100387.39
2018-09-21T07:06:26.830Z,100381.21
2018-09-21T07:08:55.652Z,100379.64
2018-09-21T07:11:24.651Z,100373.94
2018-09-21T07:13:53.720Z,100362.80
2018-09-21T07:16:22.793Z,100361.17
2018-09-21T07:18:51.618Z,100360.37
2018-09-21T07:21:20.359Z,100355.45
2018-09-21T07:23:49.187Z,100353.56
2018-09-21T07:26:17.902Z,100346.73
2018-09-21T07:28:47.086Z,100337.51
2018-09-21T07:31:15.836Z,100341.86
2018-09-21T07:33:44.541Z,100334.81
2018-09-21T07:36:13.436Z,100321.73
2018-09-21T07:38:42.554Z,100311.39
2018-09-21T07:41:11.624Z,100310.03
2018-09-21T07:43:40.515Z,100324.45
2018-09-21T07:46:09.917Z,100328.78
2018-09-21T07:48:38.714Z,100326.36
2018-09-21T07:51:07.798Z,100330.20
2018-09-21T07:53:36.559Z,100334.55
2018-09-21T07:56:05.340Z,100330.22
2018-09-21T07:58:34.492Z,100323.11
2018-09-21T08:01:03.267Z,100316.01
2018-09-21T08:03:32.166Z,100320.58
2018-09-21T08:06:00.992Z,100309.64
2018-09-21T08:08:29.753Z,100305.28
2018-09-21T08:10:58.713Z,100300.59
2018-09-21T08:13:27.831Z,100301.41
2018-09-21T08:15:56.743Z,100294.58
2018-09-21T08:18:26.015Z,100287.73
2018-09-21T08:20:55.150Z,100292.02
2018-09-21T08:23:24.011Z,100291.37
2018-09-21T08:25:52.844Z,100280.73
2018-09-21T08:28:23.052Z,100269.48
2018-09-21T08:30:51.864Z,100279.78
2018-09-21T08:33:21.053Z,100269.36
2018-09-21T08:35:49.870Z,100266.83
2018-09-21T08:38:18.635Z,100276.81
2018-09-21T08:40:47.542Z,100272.84
2018-09-21T08:43:16.543Z,100273.20
2018-09-21T08:45:45.451Z,100276.34
2018-09-21T08:48:14.263Z,100271.80
2018-09-21T08:50:43.207Z,100271.63
2018-09-21T08:53:12.213Z,100262.73
2018-09-21T08:55:41.386Z,100264.62
2018-09-21T08:58:10.171Z,100263.12
2018-09-21T09:00:39.707Z,100253.41
2018-09-21T09:03:08.539Z,100248.15
2018-09-21T09:05:37.332Z,100244.89
2018-09-21T09:08:06.079Z,100241.02
2018-09-21T09:10:34.802Z,100238.23
2018-09-21T09:13:04.006Z,100237.30
2018-09-21T09:15:33.329Z,100229.73
2018-09-21T09:18:02.159Z,100224.17
2018-09-21T09:20:31.159Z,100222.10
2018-09-21T09:23:00.289Z,100226.06
2018-09-21T09:25:29.027Z,100224.41
2018-09-21T09:27:57.882Z,100220.56
2018-09-21T09:30:27.059Z,100217.02
2018-09-21T09:32:55.997Z,100212.79
2018-09-21T09:35:25.035Z,100204.64
2018-09-21T09:37:54.145Z,100200.05
2018-09-21T09:40:23.555Z,100194.02
2018-09-21T09:42:52.706Z,100175.84
2018-09-21T09:45:21.672Z,100180.38
2018-09-21T09:47:50.830Z,100166.27
2018-09-21T09:50:19.982Z,100155.25
2018-09-21T09:52:48.854Z,100149.16
2018-09-21T09:55:18.125Z,100150.44
2018-09-21T09:57:47.165Z,100148.55
2018-09-21T10:00:20.109Z,100137.27
2018-09-21T10:02:49.169Z,100132.83
2018-09-21T10:05:17.943Z,100128.63
2018-09-21T10:07:46.792Z,100124.08
2018-09-21T10:10:15.590Z,100123.62
2018-09-21T10:12:44.402Z,100114.86
2018-09-21T10:15:13.436Z,100104.02
2018-09-21T10:17:42.507Z,100095.55
2018-09-21T10:20:11.771Z,100095.70
2018-09-21T10:22:40.598Z,100092.54
2018-09-21T10:25:09.752Z,100092.51
2018-09-21T10:27:38.721Z,100089.09
2018-09-21T10:30:07.411Z,100079.88
2018-09-21T10:32:36.852Z,100075.81
2018-09-21T10:35:05.956Z,100077.77
2018-09-21T10:37:34.757Z,100083.86
2018-09-21T10:40:03.588Z,100071.06
2018-09-21T10:42:32.610Z,100064.58
2018-09-21T10:45:01.699Z,100064.84
2018-09-21T10:47:30.524Z,100053.73
2018-09-21T10:49:59.791Z,100062.70
2018-09-21T10:52:28.610Z,100054.97
2018-09-21T10:54:57.965Z,100049.48
2018-09-21T10:57:26.798Z,100035.26
2018-09-21T10:59:55.663Z,100041.75
2018-09-21T11:02:24.468Z,100041.75
2018-09-21T11:04:55.226Z,100036.41
2018-09-21T11:07:24.390Z,100030.10
2018-09-21T11:09:53.478Z,100022.12
2018-09-21T11:12:22.299Z,100015.83
2018-09-21T11:14:51.668Z,100019.08
2018-09-21T11:17:20.643Z,100007.03
2018-09-21T11:19:50.320Z,100001.92
2018-09-21T11:22:19.153Z,99992.36
2018-09-21T11:24:48.369Z,99987.81
2018-09-21T11:27:17.287Z,99981.83
2018-09-21T11:29:46.185Z,99976.96
2018-09-21T11:32:15.003Z,99973.10
2018-09-21T11:34:44.202Z,99959.92
2018-09-21T11:37:13.149Z,99976.80
2018-09-21T11:39:42.235Z,99962.83
2018-09-21T11:42:11.358Z,99963.08
2018-09-21T11:44:40.133Z,99971.95
2018-09-21T11:47:09.600Z,99951.42
2018-09-21T11:49:38.255Z,99964.25
2018-09-21T11:52:07.326Z,99964.48
2018-09-21T11:54:36.071Z,99955.42
2018-09-21T11:57:05.092Z,99947.20
2018-09-21T11:59:33.921Z,99959.25
2018-09-21T12:02:02.830Z,99944.48
2018-09-21T12:04:31.597Z,99942.80
2018-09-21T12:07:00.971Z,99935.83
2018-09-21T12:09:29.744Z,99935.02
2018-09-21T12:11:58.880Z,99924.81
2018-09-21T12:14:27.698Z,99927.05
2018-09-21T12:16:56.476Z,99913.83
2018-09-21T12:19:25.350Z,99917.66
2018-09-21T12:21:54.588Z,99913.16
2018-09-21T12:24:23.630Z,99928.34
2018-09-21T12:26:52.784Z,99919.88
2018-09-21T12:29:22.037Z,99907.80
2018-09-21T12:31:51.157Z,99908.45
2018-09-21T12:34:20.027Z,99915.45
2018-09-21T12:36:49.119Z,99906.88
2018-09-21T12:39:18.032Z,99896.41
2018-09-21T12:41:47.294Z,99898.55
2018-09-21T12:44:17.850Z,99902.91
2018-09-21T12:46:47.773Z,99901.51
2018-09-21T12:49:16.540Z,99887.83
2018-09-21T12:51:45.312Z,99882.75
2018-09-21T12:54:14.744Z,99882.16
2018-09-21T12:56:44.467Z,99890.56
2018-09-21T12:59:13.183Z,99892.54
2018-09-21T13:01:42.433Z,99905.64
2018-09-21T13:04:11.953Z,99893.05
2018-09-21T13:06:41.045Z,99887.67
2018-09-21T13:09:09.921Z,99886.42
2018-09-21T13:11:39.118Z,99890.69
2018-09-21T13:14:08.121Z,99892.95
2018-09-21T13:16:36.919Z,99894.92
2018-09-21T13:19:06.025Z,99883.00
2018-09-21T13:21:36.525Z,99878.36
2018-09-21T13:24:06.298Z,99871.14
2018-09-21T13:26:35.402Z,99870.69
2018-09-21T13:29:04.541Z,99867.02
2018-09-21T13:31:36.275Z,99858.94
2018-09-21T13:34:05.091Z,99864.66
2018-09-21T13:36:33.918Z,99857.31
2018-09-21T13:39:02.960Z,99864.55
2018-09-21T13:41:31.727Z,99856.91
2018-09-21T13:44:00.561Z,99855.31
2018-09-21T13:46:29.344Z,99851.05
2018-09-21T13:48:58.134Z,99854.91
2018-09-21T13:51:26.943Z,99845.77
2018-09-21T13:53:57.359Z,99849.19
2018-09-21T13:56:27.330Z,99842.22
2018-09-21T13:58:56.633Z,99838.47
2018-09-21T14:01:26.841Z,99842.34
2018-09-21T14:03:56.266Z,99836.97
2018-09-21T14:06:25.175Z,99835.59
2018-09-21T14:08:54.156Z,99835.85
2018-09-21T14:11:22.940Z,99829.82
2018-09-21T14:13:52.157Z,99822.47
2018-09-21T14:16:21.165Z,99821.98
2018-09-21T14:18:50.015Z,99837.35
2018-09-21T14:21:18.897Z,99832.73
2018-09-21T14:23:48.328Z,99840.70
2018-09-21T14:26:17.365Z,99837.53
2018-09-21T14:28:46.392Z,99833.47
2018-09-21T14:31:15.126Z,99832.22
2018-09-21T14:33:43.936Z,99839.06
2018-09-21T14:36:13.151Z,99844.28
2018-09-21T14:38:42.242Z,99918.54
2018-09-21T14:41:11.279Z,100011.64
2018-09-21T14:43:39.988Z,100041.39
2018-09-21T14:46:16.308Z,100054.59
2018-09-21T14:48:48.846Z,100062.62
2018-09-21T14:51:18.506Z,100065.45
2018-09-21T14:53:47.353Z,100085.45
2018-09-21T14:56:24.477Z,100077.83
2018-09-21T14:59:00.321Z,100103.67
2018-09-21T15:01:35.112Z,100125.24
2018-09-21T15:04:04.424Z,100166.11
2018-09-21T15:06:33.783Z,100177.22
2018-09-21T15:09:02.519Z,100211.82
2018-09-21T15:11:31.486Z,100218.53
2018-09-21T15:14:00.829Z,100227.05
2018-09-21T15:16:29.693Z,100241.59
2018-09-21T15:18:58.799Z,100246.96
2018-09-21T15:21:27.990Z,100262.05
2018-09-21T15:23:57.409Z,100248.85
2018-09-21T15:26:26.323Z,100235.47
2018-09-21T15:28:55.740Z,100232.44
2018-09-21T15:31:24.824Z,100242.59
2018-09-21T15:33:53.583Z,100252.02
2018-09-21T15:36:22.611Z,100266.70
2018-09-21T15:38:52.319Z,100264.86
2018-09-21T15:41:21.293Z,100265.47
2018-09-21T15:43:50.147Z,100273.61
2018-09-21T15:46:19.339Z,100273.32
2018-09-21T15:48:49.014Z,100277.55
2018-09-21T15:51:18.167Z,100275.70
2018-09-21T15:53:47.087Z,100286.08
2018-09-21T15:56:16.306Z,100291.80
2018-09-21T15:58:45.561Z,100304.25
2018-09-21T16:01:14.994Z,100282.42
2018-09-21T16:03:49.747Z,100265.92
2018-09-21T16:06:19.294Z,100274.75
2018-09-21T16:08:49.323Z,100274.11
2018-09-21T16:11:19.424Z,100277.61
2018-09-21T16:13:52.200Z,100275.70
2018-09-21T16:16:21.309Z,100278.50
2018-09-21T16:18:50.272Z,100292.00
2018-09-21T16:21:19.222Z,100308.45
2018-09-21T16:23:48.118Z,100315.32
2018-09-21T16:26:17.621Z,100316.53
2018-09-21T16:28:46.526Z,100309.27
2018-09-21T16:31:15.396Z,100309.77
2018-09-21T16:33:44.237Z,100315.84
2018-09-21T16:36:13.022Z,100313.89
2018-09-21T16:38:42.578Z,100316.41
2018-09-21T16:41:11.673Z,100304.81
2018-09-21T16:43:41.430Z,100300.98
2018-09-21T16:46:10.596Z,100298.30
2018-09-21T16:48:39.434Z,100292.60
2018-09-21T16:51:08.203Z,100319.80
2018-09-21T16:53:37.004Z,100317.03
2018-09-21T16:56:05.879Z,100296.61
2018-09-21T16:58:34.637Z,100280.12
2018-09-21T17:01:03.859Z,100276.06
2018-09-21T17:03:32.865Z,100283.88
2018-09-21T17:06:01.889Z,100305.18
2018-09-21T17:08:30.854Z,100299.84
2018-09-21T17:10:59.808Z,100280.15
2018-09-21T17:13:29.131Z,100282.02
2018-09-21T17:15:58.547Z,100286.80
2018-09-21T17:18:27.551Z,100292.73
2018-09-21T17:20:56.794Z,100284.90
2018-09-21T17:23:25.725Z,100310.61
2018-09-21T17:25:54.794Z,100321.72
2018-09-21T17:28:24.787Z,100323.48
2018-09-21T17:30:54.729Z,100345.13
2018-09-21T17:33:23.710Z,100359.86
2018-09-21T17:35:52.829Z,100368.02
2018-09-21T17:38:21.896Z,100354.44
2018-09-21T17:40:50.689Z,100370.44
2018-09-21T17:43:19.506Z,100390.33
2018-09-21T17:45:48.629Z,100387.49
2018-09-21T17:48:18.172Z,100398.70
2018-09-21T17:50:47.000Z,100415.16
2018-09-21T17:53:15.773Z,100439.75
2018-09-21T17:55:44.529Z,100448.78
2018-09-21T17:58:13.588Z,100449.17
2018-09-21T18:00:43.362Z,100443.58
2018-09-21T18:03:12.208Z,100457.70
2018-09-21T18:05:41.039Z,100451.77
2018-09-21T18:08:09.852Z,100448.87
2018-09-21T18:10:38.763Z,100449.48
2018-09-21T18:13:07.801Z,100433.19
2018-09-21T18:15:37.495Z,100421.72
2018-09-21T18:18:06.960Z,100391.76
2018-09-21T18:20:35.913Z,100367.97
2018-09-21T18:23:06.955Z,100385.03
2018-09-21T18:25:36.204Z,100401.42
2018-09-21T18:28:05.989Z,100418.50
2018-09-21T18:30:35.002Z,100429.21
2018-09-21T18:33:03.953Z,100432.63
2018-09-21T18:35:33.601Z,100443.30
2018-09-21T18:38:04.553Z,100444.64
2018-09-21T18:40:33.814Z,100464.62
2018-09-21T18:43:03.319Z,100483.75
2018-09-21T18:45:32.545Z,100476.56
2018-09-21T18:48:01.727Z,100490.05
2018-09-21T18:50:31.519Z,100492.66
2018-09-21T18:53:00.770Z,100514.52
2018-09-21T18:55:31.725Z,100521.82
2018-09-21T18:58:02.232Z,100533.75
2018-09-21T19:00:32.354Z,100533.33
2018-09-21T19:03:03.090Z,100533.75
2018-09-21T19:05:32.910Z,100535.02
2018-09-21T19:08:02.859Z,100532.98
2018-09-21T19:10:31.950Z,100529.64
2018-09-21T19:13:01.509Z,100532.95
2018-09-21T19:15:30.458Z,100544.74
2018-09-21T19:17:59.549Z,100568.11
2018-09-21T19:20:28.591Z,100560.28
2018-09-21T19:22:57.486Z,100571.83
2018-09-21T19:25:26.471Z,100576.14
2018-09-21T19:27:56.816Z,100575.75
2018-09-21T19:30:26.035Z,100581.96
2018-09-21T19:32:55.862Z,100584.45
2018-09-21T19:35:24.863Z,100580.44
2018-09-21T19:37:54.426Z,100591.30
2018-09-21T19:40:23.242Z,100596.77
2018-09-21T19:42:55.124Z,100603.39
2018-09-21T19:45:23.985Z,100605.14
2018-09-21T19:47:53.116Z,100614.55
2018-09-21T19:50:23.392Z,100620.34
2018-09-21T19:52:52.761Z,100630.06
2018-09-21T19:55:22.325Z,100634.30
2018-09-21T19:57:51.122Z,100637.61
2018-09-21T20:00:20.310Z,100635.64
2018-09-21T20:02:49.413Z,100635.95
2018-09-21T20:05:18.507Z,100645.05
2018-09-21T20:07:47.312Z,100646.52
2018-09-21T20:10:16.994Z,100650.33
2018-09-21T20:12:45.851Z,100654.18
2018-09-21T20:15:14.609Z,100656.55
2018-09-21T20:17:43.825Z,100660.39
2018-09-21T20:20:12.767Z,100680.13
2018-09-21T20:22:42.050Z,100681.27
2018-09-21T20:25:11.404Z,100691.30
2018-09-21T20:27:40.491Z,100694.38
2018-09-21T20:30:14.318Z,100706.79
2018-09-21T20:32:48.136Z,100711.77
2018-09-21T20:35:18.763Z,100713.31
2018-09-21T20:37:47.541Z,100717.34
2018-09-21T20:40:16.896Z,100715.77
2018-09-21T20:42:45.817Z,100726.32
2018-09-21T20:45:14.570Z,100727.16
2018-09-21T20:47:43.610Z,100728.61
2018-09-21T20:50:12.363Z,100735.09
2018-09-21T20:52:41.731Z,100730.47
2018-09-21T20:55:10.890Z,100734.69
2018-09-21T20:57:40.015Z,100733.75
2018-09-21T21:00:08.941Z,100744.28
2018-09-21T21:02:38.082Z,100739.00
2018-09-21T21:05:07.305Z,100747.37
2018-09-21T21:07:36.091Z,100740.97
2018-09-21T21:10:05.018Z,100752.14
2018-09-21T21:12:33.878Z,100745.70
2018-09-21T21:15:02.751Z,100752.73
2018-09-21T21:17:31.530Z,100746.84
2018-09-21T21:20:00.719Z,100749.33
2018-09-21T21:22:29.790Z,100754.58
2018-09-21T21:24:58.641Z,100752.20
2018-09-21T21:27:27.839Z,100752.27
2018-09-21T21:29:56.936Z,100761.86
2018-09-21T21:32:26.084Z,100769.08
2018-09-21T21:34:55.612Z,100777.02
2018-09-21T21:37:24.741Z,100779.89
2018-09-21T21:39:53.475Z,100784.16
2018-09-21T21:42:22.551Z,100788.06
2018-09-21T21:44:51.397Z,100796.31
2018-09-21T21:47:20.167Z,100805.56
2018-09-21T21:49:49.272Z,100802.88
2018-09-21T21:52:18.598Z,100814.23
2018-09-21T21:54:47.791Z,100805.73
2018-09-21T21:57:16.559Z,100813.98
2018-09-21T21:59:45.886Z,100810.47
2018-09-21T22:02:14.738Z,100804.05
2018-09-21T22:04:43.887Z,100807.05
2018-09-21T22:07:13.290Z,100802.61
2018-09-21T22:09:42.086Z,100810.02
2018-09-21T22:12:16.202Z,100812.20
2018-09-21T22:14:44.955Z,100804.46
2018-09-21T22:17:13.741Z,100813.73
2018-09-21T22:19:45.726Z,100817.84
2018-09-21T22:22:14.937Z,100815.03
2018-09-21T22:24:43.674Z,100822.67
2018-09-21T22:27:12.580Z,100827.39
2018-09-21T22:29:41.543Z,100826.05
2018-09-21T22:32:10.594Z,100820.88
2018-09-21T22:34:39.643Z,100822.45
2018-09-21T22:37:14.698Z,100810.53
2018-09-21T22:39:43.785Z,100819.16
2018-09-21T22:42:12.674Z,100822.09
2018-09-21T22:44:41.464Z,100824.67
2018-09-21T22:47:10.484Z,100827.78
2018-09-21T22:49:39.576Z,100830.23
2018-09-21T22:52:08.397Z,100836.81
2018-09-21T22:54:37.190Z,100842.32
2018-09-21T22:57:05.958Z,100845.83
2018-09-21T22:59:34.763Z,100848.20
2018-09-21T23:02:04.645Z,100852.39
2018-09-21T23:04:33.500Z,100854.44
2018-09-21T23:07:02.886Z,100855.88
2018-09-21T23:09:31.755Z,100859.85
2018-09-21T23:12:00.819Z,100857.58
2018-09-21T23:14:29.641Z,100863.45
2018-09-21T23:16:58.422Z,100873.10
2018-09-21T23:19:27.241Z,100876.75
2018-09-21T23:21:56.135Z,100875.91
2018-09-21T23:24:25.145Z,100874.95
2018-09-21T23:26:54.805Z,100876.38
2018-09-21T23:29:23.636Z,100877.20
2018-09-21T23:31:52.759Z,100874.02
2018-09-21T23:34:21.647Z,100873.80
2018-09-21T23:36:50.524Z,100870.93
2018-09-21T23:39:19.282Z,100871.58
2018-09-21T23:41:48.035Z,100868.89
2018-09-21T23:44:17.363Z,100871.81
2018-09-21T23:46:46.082Z,100867.98
2018-09-21T23:49:14.838Z,100867.23
2018-09-21T23:51:43.655Z,100876.02
2018-09-21T23:54:12.522Z,100877.04
2018-09-21T23:56:41.277Z,100874.45
2018-09-21T23:59:10.039Z,100866.08
